Cygnus Leader — 3EKK5 — position and weather

sailwx.info

Track history (hours):
 
Tides and Currents Weather Stations Pressure Air Temp Water Temp Dewpoint Dewpoint Depression Visibility Wind Speed Wind Dir Waves Ship Positions

Cygnus Leader

Last reported at 2017-Sep-21 16:52 UTC. Time now 2017-Sep-25 19:09 UTC.
Position N 36°19' E 014°57'.

Length 199 m; draft 7.8 m.

Type: Ship. MMSI: 372747000.

Date/timePositionNaut miles runAvg speedWind from/ knotsBaromVisibWave heightAir tempDewpointWater temp
2017-Sep-21 16:52N 36°19' E 014°57'617.7
2017-Sep-21 16:31N 36°20' E 014°49'917.8
2017-Sep-21 16:00N 36°22' E 014°39'918.3
2017-Sep-21 15:30N 36°25' E 014°27'918.6
2017-Sep-21 15:01N 36°27' E 014°16'1018.7
2017-Sep-21 14:30N 36°29' E 014°05'918.6
2017-Sep-21 14:00N 36°31' E 013°54'918.4
2017-Sep-21 13:30N 36°32' E 013°42'23 6.7
2017-Sep-21 10:04N 36°37' E 013°14'0 0.4
2017-Sep-21 10:00N 36°37' E 013°14'67418.1
2017-Sep-19 20:49N 36°27' W 000°45'819.6
2017-Sep-19 20:25N 36°26' W 000°55'1020.1
2017-Sep-19 19:56N 36°24' W 001°07'920.1
2017-Sep-19 19:30N 36°22' W 001°17'1520.1
2017-Sep-19 18:46N 36°19' W 001°35'17719.9
2017-Sep-19 09:51N 36°00' W 005°13'720.4
2017-Sep-19 09:30N 35°58' W 005°22'14918.7
2017-Sep-19 01:33N 36°23' W 008°24'119.0
2017-Sep-19 01:30N 36°23' W 008°25'1019.1
2017-Sep-19 01:00N 36°25' W 008°36'1019.1
2017-Sep-19 00:28N 36°28' W 008°48'919.2
2017-Sep-19 00:00N 36°30' W 008°59'2418.6
2017-Sep-18 22:43N 36°40' W 009°26'619.5
2017-Sep-18 22:26N 36°45' W 009°31'919.1
2017-Sep-18 21:57N 36°53' W 009°35'919.7
2017-Sep-18 21:30N 37°02' W 009°37'1319.5
2017-Sep-18 20:51N 37°14' W 009°41'719.3
2017-Sep-18 20:30N 37°20' W 009°43'1019.7
2017-Sep-18 20:00N 37°30' W 009°45'1019.5
2017-Sep-18 19:30N 37°40' W 009°48'1019.5
2017-Sep-18 19:00N 37°49' W 009°50'1019.2
2017-Sep-18 18:30N 37°59' W 009°52'919.0
2017-Sep-18 18:00N 38°08' W 009°55'1019.2
2017-Sep-18 17:30N 38°17' W 009°59'1019.9
2017-Sep-18 17:00N 38°26' W 010°03'1019.4
2017-Sep-18 16:30N 38°36' W 010°05'1019.9
2017-Sep-18 16:00N 38°46' W 010°06'1019.7
2017-Sep-18 15:30N 38°56' W 010°06'1019.6
2017-Sep-18 15:00N 39°06' W 010°06'1019.5
2017-Sep-18 14:30N 39°15' W 010°06'1019.0
2017-Sep-18 14:00N 39°25' W 010°06'1219.3
2017-Sep-18 13:22N 39°37' W 010°06'66018.3
2017-Sep-17 01:19N 49°47' W 004°12'618.6
2017-Sep-17 01:01N 49°51' W 004°06'918.7
2017-Sep-17 00:30N 49°56' W 003°54'1019.3
2017-Sep-17 00:00N 50°04' W 003°44'1020.3
2017-Sep-16 23:31N 50°10' W 003°32'917.4
2017-Sep-16 23:01N 50°19' W 003°28'611.6
2017-Sep-16 22:30N 50°24' W 003°26'714.5
2017-Sep-16 22:01N 50°25' W 003°14'1019.9
2017-Sep-16 21:30N 50°26' W 002°59'1019.9
2017-Sep-16 21:01N 50°26' W 002°43'2719.3
2017-Sep-16 19:35N 50°28' W 002°00'218.3
2017-Sep-16 19:28N 50°28' W 001°57'818.1
2017-Sep-16 19:01N 50°28' W 001°44'1517.4
2017-Sep-16 18:08N 50°29' W 001°20'316.7
2017-Sep-16 17:57N 50°29' W 001°15'716.5
2017-Sep-16 17:31N 50°30' W 001°04'816.7
2017-Sep-16 17:00N 50°30' W 000°50'816.7
2017-Sep-16 16:31N 50°31' W 000°37'917.3
2017-Sep-16 16:00N 50°31' W 000°24'917.9
2017-Sep-16 15:30N 50°32' W 000°10'918.5
2017-Sep-16 15:00N 50°34' E 000°05'918.9
2017-Sep-16 14:30N 50°36' E 000°19'1019.4
2017-Sep-16 14:01N 50°38' E 000°34'1019.1
2017-Sep-16 13:30N 50°42' E 000°48'1019.7
2017-Sep-16 13:00N 50°48' E 000°60'1019.3
2017-Sep-16 12:29N 50°55' E 001°11'918.8
2017-Sep-16 12:01N 51°01' E 001°22'917.4
2017-Sep-16 11:30N 51°07' E 001°32'917.7
2017-Sep-16 11:00N 51°12' E 001°44'917.6
2017-Sep-16 10:30N 51°19' E 001°52'917.5
2017-Sep-16 10:00N 51°27' E 001°60'917.7
2017-Sep-16 09:30N 51°34' E 002°08'917.8
2017-Sep-16 09:00N 51°40' E 002°18'7819.2
2017-Sep-16 04:57N 52°42' E 003°35'919.8
2017-Sep-16 04:29N 52°49' E 003°45'919.7
2017-Sep-16 04:00N 52°56' E 003°55'1019.1
2017-Sep-16 03:30N 53°02' E 004°08'918.9
2017-Sep-16 03:00N 53°09' E 004°19'2318.1
2017-Sep-16 01:45N 53°29' E 004°34'518.1
2017-Sep-16 01:30N 53°34' E 004°37'28217.4
2017-Sep-15 09:20N 57°33' E 009°01'616.1
2017-Sep-15 08:59N 57°35' E 009°11'1516.5
2017-Sep-15 08:05N 57°41' E 009°36'116.8
2017-Sep-15 08:00N 57°42' E 009°38'816.3
2017-Sep-15 07:30N 57°45' E 009°53'816.7
2017-Sep-15 07:00N 57°47' E 010°08'816.6
2017-Sep-15 06:30N 57°49' E 010°23'815.5
2017-Sep-15 06:00N 57°50' E 010°37'815.0
2017-Sep-15 05:30N 57°49' E 010°51'816.5
2017-Sep-15 05:00N 57°44' E 011°04'816.6
2017-Sep-15 04:30N 57°40' E 011°17'714.5
2017-Sep-15 04:00N 57°36' E 011°29'510.7
2017-Sep-15 03:30N 57°32' E 011°34'816.6
2017-Sep-15 03:00N 57°23' E 011°36'816.6
2017-Sep-15 02:30N 57°15' E 011°38'916.4
2017-Sep-15 01:59N 57°07' E 011°40'5116.2
2017-Sep-14 22:49N 56°20' E 012°17'515.9
2017-Sep-14 22:30N 56°16' E 012°22'815.5
2017-Sep-14 22:00N 56°09' E 012°30'612.6
2017-Sep-14 21:30N 56°04' E 012°37'4 8.0
2017-Sep-14 21:00N 56°01' E 012°41'5 9.5
2017-Sep-14 20:30N 55°56' E 012°43'5 9.6
2017-Sep-14 20:00N 55°52' E 012°45'5 9.9
2017-Sep-14 19:30N 55°47' E 012°48'5 9.8
2017-Sep-14 19:00N 55°43' E 012°53'5 9.8
2017-Sep-14 18:30N 55°39' E 012°57'2 4.6
2017-Sep-14 18:00N 55°37' E 012°60'0 0.1
2017-Sep-14 17:28N 55°37' E 012°60'0 0.0
2017-Sep-14 16:58N 55°37' E 012°60'0 0.0
2017-Sep-14 16:28N 55°37' E 012°60'0 0.0
2017-Sep-14 15:58N 55°37' E 012°60'0 0.0
2017-Sep-14 15:28N 55°37' E 012°60'0 0.0
2017-Sep-14 14:58N 55°37' E 012°60'0 0.0
2017-Sep-14 14:28N 55°37' E 012°60'0 0.0
2017-Sep-14 13:58N 55°37' E 012°60'0 0.0
2017-Sep-14 13:28N 55°37' E 012°60'0 0.0
2017-Sep-14 12:58N 55°37' E 012°60'0 0.0
2017-Sep-14 12:28N 55°37' E 012°60'0 0.0
2017-Sep-14 11:58N 55°37' E 012°60'0 0.0
2017-Sep-14 11:25N 55°37' E 012°60'0 0.0
2017-Sep-14 10:58N 55°37' E 012°60'0 0.0
2017-Sep-14 10:28N 55°37' E 012°60'0 0.0
2017-Sep-14 09:58N 55°37' E 012°60'0 0.0
2017-Sep-14 09:28N 55°37' E 012°60'0 0.0
2017-Sep-14 08:58N 55°37' E 012°60'0 0.0
2017-Sep-14 08:28N 55°37' E 012°60'0 0.0
2017-Sep-14 07:58N 55°37' E 012°60'1 1.4
2017-Sep-14 07:30N 55°37' E 012°59'4 7.3
2017-Sep-14 07:01N 55°40' E 012°55'611.2
2017-Sep-14 06:30N 55°45' E 012°49'5 9.9
2017-Sep-14 06:01N 55°42' E 012°41'510.4
2017-Sep-14 05:31N 55°37' E 012°42'4 8.7
2017-Sep-14 05:01N 55°33' E 012°42'2 4.8
2017-Sep-14 04:31N 55°31' E 012°42'1 2.6
2017-Sep-14 04:00N 55°29' E 012°43'2 4.5
2017-Sep-14 03:31N 55°27' E 012°42'3 5.4
2017-Sep-14 03:00N 55°24' E 012°42'3 5.7
2017-Sep-14 02:31N 55°22' E 012°41'3 6.7
2017-Sep-14 02:01N 55°18' E 012°42'3 6.4
2017-Sep-14 01:31N 55°17' E 012°48'3 7.0
2017-Sep-14 01:00N 55°16' E 012°53'3 6.9
2017-Sep-14 00:31N 55°15' E 012°59'4 8.3
2017-Sep-14 00:01N 55°15' E 013°07'4 8.4
2017-Sep-13 23:30N 55°15' E 013°14'4 9.0
2017-Sep-13 23:01N 55°14' E 013°22'5 9.5
2017-Sep-13 22:31N 55°14' E 013°30'4 8.0
2017-Sep-13 21:59N 55°14' E 013°37'16 8.2
2017-Sep-13 20:03N 55°13' E 014°05'3 8.7
2017-Sep-13 19:45N 55°13' E 014°10'2 9.0
2017-Sep-13 19:31N 55°13' E 014°14'510.0
2017-Sep-13 19:01N 55°16' E 014°21'712.9
2017-Sep-13 18:26N 55°22' E 014°29'613.9
2017-Sep-13 18:00N 55°26' E 014°36'714.0
2017-Sep-13 17:30N 55°30' E 014°46'814.3
2017-Sep-13 16:58N 55°33' E 014°58'714.4
2017-Sep-13 16:28N 55°37' E 015°10'714.3
2017-Sep-13 16:01N 55°39' E 015°20'714.3
2017-Sep-13 15:30N 55°41' E 015°33'714.1
2017-Sep-13 15:01N 55°43' E 015°45'714.4
2017-Sep-13 14:31N 55°44' E 015°58'714.9
2017-Sep-13 14:01N 55°46' E 016°10'815.5
2017-Sep-13 13:30N 55°48' E 016°24'815.7
2017-Sep-13 13:01N 55°49' E 016°37'815.2
2017-Sep-13 12:30N 55°51' E 016°51'286 7.3
2017-Sep-11 21:14N 59°31' E 022°31'816.8
2017-Sep-11 20:47N 59°33' E 022°46'516.9
2017-Sep-11 20:30N 59°34' E 022°55'917.4
2017-Sep-11 20:00N 59°37' E 023°11'917.3
2017-Sep-11 19:30N 59°39' E 023°28'817.0
2017-Sep-11 19:01N 59°41' E 023°44'917.1
2017-Sep-11 18:30N 59°44' E 024°00'917.5
2017-Sep-11 18:00N 59°46' E 024°17'816.9
2017-Sep-11 17:31N 59°48' E 024°33'916.8
2017-Sep-11 17:00N 59°51' E 024°49'  
Track history (hours):
 
Tides and Currents Weather Stations Pressure Air Temp Water Temp Dewpoint Dewpoint Depression Visibility Wind Speed Wind Dir Waves Ship Positions

Cygnus Leader

Last reported at 2017-Sep-21 16:52 UTC. Time now 2017-Sep-25 19:09 UTC.
Position N 36°19' E 014°57'.

Length 199 m; draft 7.8 m.

Type: Ship. MMSI: 372747000.

Date/timePositionNaut miles runAvg speedWind from/ knotsBaromVisibWave heightAir tempDewpointWater temp
2017-Sep-21 16:52N 36°19' E 014°57'617.7
2017-Sep-21 16:31N 36°20' E 014°49'917.8
2017-Sep-21 16:00N 36°22' E 014°39'918.3
2017-Sep-21 15:30N 36°25' E 014°27'918.6
2017-Sep-21 15:01N 36°27' E 014°16'1018.7
2017-Sep-21 14:30N 36°29' E 014°05'918.6
2017-Sep-21 14:00N 36°31' E 013°54'918.4
2017-Sep-21 13:30N 36°32' E 013°42'23 6.7
2017-Sep-21 10:04N 36°37' E 013°14'0 0.4
2017-Sep-21 10:00N 36°37' E 013°14'67418.1
2017-Sep-19 20:49N 36°27' W 000°45'819.6
2017-Sep-19 20:25N 36°26' W 000°55'1020.1
2017-Sep-19 19:56N 36°24' W 001°07'920.1
2017-Sep-19 19:30N 36°22' W 001°17'1520.1
2017-Sep-19 18:46N 36°19' W 001°35'17719.9
2017-Sep-19 09:51N 36°00' W 005°13'720.4
2017-Sep-19 09:30N 35°58' W 005°22'14918.7
2017-Sep-19 01:33N 36°23' W 008°24'119.0
2017-Sep-19 01:30N 36°23' W 008°25'1019.1
2017-Sep-19 01:00N 36°25' W 008°36'1019.1
2017-Sep-19 00:28N 36°28' W 008°48'919.2
2017-Sep-19 00:00N 36°30' W 008°59'2418.6
2017-Sep-18 22:43N 36°40' W 009°26'619.5
2017-Sep-18 22:26N 36°45' W 009°31'919.1
2017-Sep-18 21:57N 36°53' W 009°35'919.7
2017-Sep-18 21:30N 37°02' W 009°37'1319.5
2017-Sep-18 20:51N 37°14' W 009°41'719.3
2017-Sep-18 20:30N 37°20' W 009°43'1019.7
2017-Sep-18 20:00N 37°30' W 009°45'1019.5
2017-Sep-18 19:30N 37°40' W 009°48'1019.5
2017-Sep-18 19:00N 37°49' W 009°50'1019.2
2017-Sep-18 18:30N 37°59' W 009°52'919.0
2017-Sep-18 18:00N 38°08' W 009°55'1019.2
2017-Sep-18 17:30N 38°17' W 009°59'1019.9
2017-Sep-18 17:00N 38°26' W 010°03'1019.4
2017-Sep-18 16:30N 38°36' W 010°05'1019.9
2017-Sep-18 16:00N 38°46' W 010°06'1019.7
2017-Sep-18 15:30N 38°56' W 010°06'1019.6
2017-Sep-18 15:00N 39°06' W 010°06'1019.5
2017-Sep-18 14:30N 39°15' W 010°06'1019.0
2017-Sep-18 14:00N 39°25' W 010°06'1219.3
2017-Sep-18 13:22N 39°37' W 010°06'66018.3
2017-Sep-17 01:19N 49°47' W 004°12'618.6
2017-Sep-17 01:01N 49°51' W 004°06'918.7
2017-Sep-17 00:30N 49°56' W 003°54'1019.3
2017-Sep-17 00:00N 50°04' W 003°44'1020.3
2017-Sep-16 23:31N 50°10' W 003°32'917.4
2017-Sep-16 23:01N 50°19' W 003°28'611.6
2017-Sep-16 22:30N 50°24' W 003°26'714.5
2017-Sep-16 22:01N 50°25' W 003°14'1019.9
2017-Sep-16 21:30N 50°26' W 002°59'1019.9
2017-Sep-16 21:01N 50°26' W 002°43'2719.3
2017-Sep-16 19:35N 50°28' W 002°00'218.3
2017-Sep-16 19:28N 50°28' W 001°57'818.1
2017-Sep-16 19:01N 50°28' W 001°44'1517.4
2017-Sep-16 18:08N 50°29' W 001°20'316.7
2017-Sep-16 17:57N 50°29' W 001°15'716.5
2017-Sep-16 17:31N 50°30' W 001°04'816.7
2017-Sep-16 17:00N 50°30' W 000°50'816.7
2017-Sep-16 16:31N 50°31' W 000°37'917.3
2017-Sep-16 16:00N 50°31' W 000°24'917.9
2017-Sep-16 15:30N 50°32' W 000°10'918.5
2017-Sep-16 15:00N 50°34' E 000°05'918.9
2017-Sep-16 14:30N 50°36' E 000°19'1019.4
2017-Sep-16 14:01N 50°38' E 000°34'1019.1
2017-Sep-16 13:30N 50°42' E 000°48'1019.7
2017-Sep-16 13:00N 50°48' E 000°60'1019.3
2017-Sep-16 12:29N 50°55' E 001°11'918.8
2017-Sep-16 12:01N 51°01' E 001°22'917.4
2017-Sep-16 11:30N 51°07' E 001°32'917.7
2017-Sep-16 11:00N 51°12' E 001°44'917.6
2017-Sep-16 10:30N 51°19' E 001°52'917.5
2017-Sep-16 10:00N 51°27' E 001°60'917.7
2017-Sep-16 09:30N 51°34' E 002°08'917.8
2017-Sep-16 09:00N 51°40' E 002°18'7819.2
2017-Sep-16 04:57N 52°42' E 003°35'919.8
2017-Sep-16 04:29N 52°49' E 003°45'919.7
2017-Sep-16 04:00N 52°56' E 003°55'1019.1
2017-Sep-16 03:30N 53°02' E 004°08'918.9
2017-Sep-16 03:00N 53°09' E 004°19'2318.1
2017-Sep-16 01:45N 53°29' E 004°34'518.1
2017-Sep-16 01:30N 53°34' E 004°37'28217.4
2017-Sep-15 09:20N 57°33' E 009°01'616.1
2017-Sep-15 08:59N 57°35' E 009°11'1516.5
2017-Sep-15 08:05N 57°41' E 009°36'116.8
2017-Sep-15 08:00N 57°42' E 009°38'816.3
2017-Sep-15 07:30N 57°45' E 009°53'816.7
2017-Sep-15 07:00N 57°47' E 010°08'816.6
2017-Sep-15 06:30N 57°49' E 010°23'815.5
2017-Sep-15 06:00N 57°50' E 010°37'815.0
2017-Sep-15 05:30N 57°49' E 010°51'816.5
2017-Sep-15 05:00N 57°44' E 011°04'816.6
2017-Sep-15 04:30N 57°40' E 011°17'714.5
2017-Sep-15 04:00N 57°36' E 011°29'510.7
2017-Sep-15 03:30N 57°32' E 011°34'816.6
2017-Sep-15 03:00N 57°23' E 011°36'816.6
2017-Sep-15 02:30N 57°15' E 011°38'916.4
2017-Sep-15 01:59N 57°07' E 011°40'5116.2
2017-Sep-14 22:49N 56°20' E 012°17'515.9
2017-Sep-14 22:30N 56°16' E 012°22'815.5
2017-Sep-14 22:00N 56°09' E 012°30'612.6
2017-Sep-14 21:30N 56°04' E 012°37'4 8.0
2017-Sep-14 21:00N 56°01' E 012°41'5 9.5
2017-Sep-14 20:30N 55°56' E 012°43'5 9.6
2017-Sep-14 20:00N 55°52' E 012°45'5 9.9
2017-Sep-14 19:30N 55°47' E 012°48'5 9.8
2017-Sep-14 19:00N 55°43' E 012°53'5 9.8
2017-Sep-14 18:30N 55°39' E 012°57'2 4.6
2017-Sep-14 18:00N 55°37' E 012°60'0 0.1
2017-Sep-14 17:28N 55°37' E 012°60'0 0.0
2017-Sep-14 16:58N 55°37' E 012°60'0 0.0
2017-Sep-14 16:28N 55°37' E 012°60'0 0.0
2017-Sep-14 15:58N 55°37' E 012°60'0 0.0
2017-Sep-14 15:28N 55°37' E 012°60'0 0.0
2017-Sep-14 14:58N 55°37' E 012°60'0 0.0
2017-Sep-14 14:28N 55°37' E 012°60'0 0.0
2017-Sep-14 13:58N 55°37' E 012°60'0 0.0
2017-Sep-14 13:28N 55°37' E 012°60'0 0.0
2017-Sep-14 12:58N 55°37' E 012°60'0 0.0
2017-Sep-14 12:28N 55°37' E 012°60'0 0.0
2017-Sep-14 11:58N 55°37' E 012°60'0 0.0
2017-Sep-14 11:25N 55°37' E 012°60'0 0.0
2017-Sep-14 10:58N 55°37' E 012°60'0 0.0
2017-Sep-14 10:28N 55°37' E 012°60'0 0.0
2017-Sep-14 09:58N 55°37' E 012°60'0 0.0
2017-Sep-14 09:28N 55°37' E 012°60'0 0.0
2017-Sep-14 08:58N 55°37' E 012°60'0 0.0
2017-Sep-14 08:28N 55°37' E 012°60'0 0.0
2017-Sep-14 07:58N 55°37' E 012°60'1 1.4
2017-Sep-14 07:30N 55°37' E 012°59'4 7.3
2017-Sep-14 07:01N 55°40' E 012°55'611.2
2017-Sep-14 06:30N 55°45' E 012°49'5 9.9
2017-Sep-14 06:01N 55°42' E 012°41'510.4
2017-Sep-14 05:31N 55°37' E 012°42'4 8.7
2017-Sep-14 05:01N 55°33' E 012°42'2 4.8
2017-Sep-14 04:31N 55°31' E 012°42'1 2.6
2017-Sep-14 04:00N 55°29' E 012°43'2 4.5
2017-Sep-14 03:31N 55°27' E 012°42'3 5.4
2017-Sep-14 03:00N 55°24' E 012°42'3 5.7
2017-Sep-14 02:31N 55°22' E 012°41'3 6.7
2017-Sep-14 02:01N 55°18' E 012°42'3 6.4
2017-Sep-14 01:31N 55°17' E 012°48'3 7.0
2017-Sep-14 01:00N 55°16' E 012°53'3 6.9
2017-Sep-14 00:31N 55°15' E 012°59'4 8.3
2017-Sep-14 00:01N 55°15' E 013°07'4 8.4
2017-Sep-13 23:30N 55°15' E 013°14'4 9.0
2017-Sep-13 23:01N 55°14' E 013°22'5 9.5
2017-Sep-13 22:31N 55°14' E 013°30'4 8.0
2017-Sep-13 21:59N 55°14' E 013°37'16 8.2
2017-Sep-13 20:03N 55°13' E 014°05'3 8.7
2017-Sep-13 19:45N 55°13' E 014°10'2 9.0
2017-Sep-13 19:31N 55°13' E 014°14'510.0
2017-Sep-13 19:01N 55°16' E 014°21'712.9
2017-Sep-13 18:26N 55°22' E 014°29'613.9
2017-Sep-13 18:00N 55°26' E 014°36'714.0
2017-Sep-13 17:30N 55°30' E 014°46'814.3
2017-Sep-13 16:58N 55°33' E 014°58'714.4
2017-Sep-13 16:28N 55°37' E 015°10'714.3
2017-Sep-13 16:01N 55°39' E 015°20'714.3
2017-Sep-13 15:30N 55°41' E 015°33'714.1
2017-Sep-13 15:01N 55°43' E 015°45'714.4
2017-Sep-13 14:31N 55°44' E 015°58'714.9
2017-Sep-13 14:01N 55°46' E 016°10'815.5
2017-Sep-13 13:30N 55°48' E 016°24'815.7
2017-Sep-13 13:01N 55°49' E 016°37'815.2
2017-Sep-13 12:30N 55°51' E 016°51'286 7.3
2017-Sep-11 21:14N 59°31' E 022°31'816.8
2017-Sep-11 20:47N 59°33' E 022°46'516.9
2017-Sep-11 20:30N 59°34' E 022°55'917.4
2017-Sep-11 20:00N 59°37' E 023°11'917.3
2017-Sep-11 19:30N 59°39' E 023°28'817.0
2017-Sep-11 19:01N 59°41' E 023°44'917.1
2017-Sep-11 18:30N 59°44' E 024°00'917.5
2017-Sep-11 18:00N 59°46' E 024°17'816.9
2017-Sep-11 17:31N 59°48' E 024°33'916.8
2017-Sep-11 17:00N 59°51' E 024°49'  

Dump ship's entire track history